Aérodrome :
LOGIN :

S'inscrire | Disclaimer

   EN    FR    IT 

 










Légende :    VFR   VFR Marginal   IFR   IFR Intensif   IFR Très Intensif
Visi : 
Plafond : 
>= 8 km
>= 3000ft
5 à 8 km
1000 à 3000 ft
1500m à 5 km
500 à 1000 ft
800 à 1500m
200 à 500 ft
< 800m
< 200 ft
Symboles :   Orages  Brouillard  Fortes neiges  Fortes précipitations  Vent > 20 kt
SIGMETs :   Divers  Orages  Givrage  Turbulence  Onde Orograph.  Cendres Volcan.






- Altitude de l'aérodrome : 74 ft
- Code IATA : LRH


LFBH - La Rochelle Ile de Ré

DERNIER METAR :
  • 301100Z AUTO 18007KT 150V220 3200 -DZ BR BKN022 OVC029 05/03 Q1032 BECMG 9999 NSW

METARs EXPIRÉS :
  • 301030Z AUTO 19006KT 7000 BKN020 BKN026 OVC031 05/03 Q1032 TEMPO 3500 BR
  • 301000Z AUTO 18006KT 7000 OVC024 05/03 Q1032 NOSIG
  • 300930Z AUTO 17005KT 5000 BR FEW027 OVC036 05/03 Q1032 NOSIG
  • 300900Z AUTO 15003KT 110V200 3600 BR OVC033 03/02 Q1032 BECMG 9999 NSW
  • 300830Z AUTO 16006KT 3900 BR OVC033 02/01 Q1031 BECMG 9999 NSW

TAF AMD TAF LFBH
Valide du 30 à 10h jusqu'au 31 à 06h UTC


301004Z 3010/3106 14003KT 9999 BKN030
TEMPO 3010/3012 3500 BR
BECMG 3012/3014 22010KT
TEMPO 3021/3106 VRB05KT 4500 -RA BKN014
PROB40
TEMPO 3102/3106 3000 BR
PROB30
TEMPO 3103/3106 0500 FG VV///
ATIS : +33 5 46 00 13 92



MET'MAP, la Météo Aéronautique d'un coup d'oeil ! - Copyright ORBIFLY Décembre 2007 - Disclaimer

ORBIFLY MET'MAP TEAM :

Programmation & Développement : Alexandra Zaïnal
Sur une idée originale de : Baudouin d'Aumeries
Soutien technique & logistique : Manuel Goepfert
Assistance : Marc-Olivier Méhu




SOURCES & CREDITS :

   NOAA